Time;durP1;ratioP1;P1;durP2;ratioP2;P2;SDS_P1;SDS_P2;PMS_P1;PMS_P2;Temp;Humidity;BMP_temperature;BMP_pressure;BME280_temperature;BME280_humidity;BME280_pressure;Samples;Min_cycle;Max_cycle;Signal;HPM_P1;HPM_P2
2022/04/14 00:00:36;;;;;;;21.00;16.33;;;;;;;;;;5074568;28;20239;-56
2022/04/14 00:03:02;;;;;;;19.77;15.30;;;;;;;;;;5074763;28;20192;-56
2022/04/14 00:05:29;;;;;;;16.63;13.30;;;;;;;;;;5074530;28;20739;-55
2022/04/14 00:07:55;;;;;;;14.93;12.33;;;;;;;;;;5074411;28;20568;-56
2022/04/14 00:10:22;;;;;;;13.77;12.07;;;;;;;;;;5074465;28;20595;-56
2022/04/14 00:12:48;;;;;;;13.60;10.53;;;;;;;;;;5074452;28;20238;-56
2022/04/14 00:15:14;;;;;;;12.50;10.33;;;;;;;;;;5074527;28;20249;-56
2022/04/14 00:17:40;;;;;;;14.27;11.27;;;;;;;;;;5074469;28;20195;-55
2022/04/14 00:20:07;;;;;;;10.30;7.33;;;;;;;;;;5074234;28;20233;-56
2022/04/14 00:22:35;;;;;;;9.50;6.87;;;;;;;;;;5074339;28;20191;-55
2022/04/14 00:25:01;;;;;;;7.40;6.20;;;;;;;;;;5074055;28;20227;-55
2022/04/14 00:27:27;;;;;;;8.03;6.40;;;;;;;;;;5074326;28;20206;-55
2022/04/14 00:29:53;;;;;;;7.43;6.17;;;;;;;;;;5074098;28;20200;-55
2022/04/14 00:32:19;;;;;;;6.87;5.33;;;;;;;;;;5074132;28;20684;-57
2022/04/14 00:34:46;;;;;;;6.47;5.87;;;;;;;;;;5074085;28;20199;-56
2022/04/14 00:37:13;;;;;;;7.83;5.73;;;;;;;;;;5074158;28;20608;-56
2022/04/14 00:39:41;;;;;;;7.47;5.37;;;;;;;;;;5073929;28;20223;-56
2022/04/14 00:42:09;;;;;;;6.17;5.57;;;;;;;;;;5073797;28;20208;-57
2022/04/14 00:44:35;;;;;;;7.93;5.53;;;;;;;;;;5073887;28;20543;-57
2022/04/14 00:47:01;;;;;;;8.40;5.40;;;;;;;;;;5073881;28;20662;-56
2022/04/14 00:49:27;;;;;;;6.73;4.67;;;;;;;;;;5073896;28;20211;-56
2022/04/14 00:51:53;;;;;;;7.20;5.70;;;;;;;;;;5073440;28;20184;-56
2022/04/14 00:54:19;;;;;;;7.33;5.30;;;;;;;;;;5073190;28;20241;-56
2022/04/14 00:56:46;;;;;;;6.97;5.30;;;;;;;;;;5073489;28;20551;-56
2022/04/14 00:59:12;;;;;;;6.40;5.70;;;;;;;;;;5073750;28;20200;-56
2022/04/14 01:01:38;;;;;;;6.77;5.17;;;;;;;;;;5073325;28;20235;-56
2022/04/14 01:04:05;;;;;;;7.73;5.50;;;;;;;;;;5073363;28;20204;-56
2022/04/14 01:06:31;;;;;;;6.53;5.93;;;;;;;;;;5073523;28;20256;-56
2022/04/14 01:09:16;;;;;;;6.97;5.77;;;;;;;;;;5073379;28;20200;-56
2022/04/14 01:11:43;;;;;;;7.07;5.63;;;;;;;;;;5073301;28;20187;-56
2022/04/14 01:14:18;;;;;;;8.37;5.53;;;;;;;;;;5073328;28;20295;-56
2022/04/14 01:16:44;;;;;;;7.13;6.43;;;;;;;;;;5073504;28;20209;-57
2022/04/14 01:19:10;;;;;;;6.23;5.63;;;;;;;;;;5073226;28;20238;-56
2022/04/14 01:21:36;;;;;;;8.27;6.70;;;;;;;;;;5073082;28;20247;-56
2022/04/14 01:24:03;;;;;;;6.97;6.13;;;;;;;;;;5072988;28;20211;-56
2022/04/14 01:26:30;;;;;;;7.37;6.17;;;;;;;;;;5073307;28;20210;-56
2022/04/14 01:28:56;;;;;;;7.00;6.30;;;;;;;;;;5072674;28;20215;-55
2022/04/14 01:31:22;;;;;;;6.27;5.70;;;;;;;;;;5072938;28;20195;-56
2022/04/14 01:33:48;;;;;;;8.17;5.90;;;;;;;;;;5073039;28;20561;-56
2022/04/14 01:36:16;;;;;;;6.80;5.73;;;;;;;;;;5073061;28;20666;-57
2022/04/14 01:38:42;;;;;;;7.03;6.37;;;;;;;;;;5072854;28;20207;-56
2022/04/14 01:41:10;;;;;;;7.73;6.70;;;;;;;;;;5072701;28;20718;-56
2022/04/14 01:43:36;;;;;;;8.50;6.63;;;;;;;;;;5072763;28;20284;-56
2022/04/14 01:46:05;;;;;;;7.20;6.50;;;;;;;;;;5072877;28;20295;-56
2022/04/14 01:48:31;;;;;;;7.83;6.97;;;;;;;;;;5072762;28;20192;-56
2022/04/14 01:50:57;;;;;;;8.03;7.27;;;;;;;;;;5072525;28;20565;-57
2022/04/14 01:53:22;;;;;;;9.67;8.67;;;;;;;;;;5072732;28;20359;-56
2022/04/14 01:55:49;;;;;;;9.63;8.63;;;;;;;;;;5072428;28;20204;-55
2022/04/14 01:58:16;;;;;;;10.03;9.03;;;;;;;;;;5072718;28;20203;-55
2022/04/14 02:00:42;;;;;;;8.73;7.83;;;;;;;;;;5072213;28;20257;-55
2022/04/14 02:03:08;;;;;;;8.43;7.43;;;;;;;;;;5072315;28;20669;-55
2022/04/14 02:05:34;;;;;;;8.67;7.20;;;;;;;;;;5072199;28;20202;-54
2022/04/14 02:08:00;;;;;;;7.07;6.47;;;;;;;;;;5072366;28;20198;-54
2022/04/14 02:10:26;;;;;;;6.10;5.50;;;;;;;;;;5072467;28;20291;-55
2022/04/14 02:12:52;;;;;;;6.40;5.53;;;;;;;;;;5072170;28;20204;-55
2022/04/14 02:15:19;;;;;;;7.13;5.43;;;;;;;;;;5072218;28;20204;-55
2022/04/14 02:17:45;;;;;;;6.60;5.73;;;;;;;;;;5072139;28;20207;-55
2022/04/14 02:20:11;;;;;;;6.77;6.10;;;;;;;;;;5072093;28;20305;-55
2022/04/14 02:22:38;;;;;;;7.30;6.60;;;;;;;;;;5072221;28;20256;-55
2022/04/14 02:25:04;;;;;;;6.97;5.80;;;;;;;;;;5072011;28;20642;-55
2022/04/14 02:27:30;;;;;;;6.67;6.07;;;;;;;;;;5072263;28;20257;-55
2022/04/14 02:29:56;;;;;;;6.67;6.07;;;;;;;;;;5072063;28;20282;-54
2022/04/14 02:32:24;;;;;;;7.47;6.67;;;;;;;;;;5071956;28;20270;-54
2022/04/14 02:34:49;;;;;;;6.50;5.90;;;;;;;;;;5071972;28;20199;-54
2022/04/14 02:37:15;;;;;;;6.90;6.20;;;;;;;;;;5072090;28;20266;-56
2022/04/14 02:39:41;;;;;;;6.10;5.50;;;;;;;;;;5071966;28;20203;-55
2022/04/14 02:42:07;;;;;;;5.30;4.80;;;;;;;;;;5071986;28;20199;-56
2022/04/14 02:44:33;;;;;;;5.33;4.83;;;;;;;;;;5071934;28;20329;-56
2022/04/14 02:46:59;;;;;;;6.47;5.43;;;;;;;;;;5071956;28;20204;-55
2022/04/14 02:49:27;;;;;;;6.83;5.10;;;;;;;;;;5072023;28;20196;-56
2022/04/14 02:51:53;;;;;;;6.07;5.10;;;;;;;;;;5071784;28;20199;-56
2022/04/14 02:54:19;;;;;;;5.63;5.00;;;;;;;;;;5071905;28;20199;-56
2022/04/14 02:56:45;;;;;;;5.30;4.70;;;;;;;;;;5072031;28;20203;-56
2022/04/14 02:59:11;;;;;;;5.20;4.60;;;;;;;;;;5071747;28;20200;-56
2022/04/14 03:01:37;;;;;;;4.23;3.83;;;;;;;;;;5071612;28;20239;-56
2022/04/14 03:04:03;;;;;;;5.43;4.60;;;;;;;;;;5071802;28;20195;-55
2022/04/14 03:06:30;;;;;;;5.30;4.80;;;;;;;;;;5071806;28;20231;-54
2022/04/14 03:08:56;;;;;;;8.27;4.90;;;;;;;;;;5071692;28;20206;-54
2022/04/14 03:11:22;;;;;;;5.87;5.07;;;;;;;;;;5071794;28;20183;-54
2022/04/14 03:13:48;;;;;;;7.03;5.60;;;;;;;;;;5071746;28;20728;-54
2022/04/14 03:16:14;;;;;;;5.50;5.00;;;;;;;;;;5073255;28;20252;-54
2022/04/14 03:18:40;;;;;;;7.83;5.73;;;;;;;;;;5075840;28;20650;-54
2022/04/14 03:21:06;;;;;;;6.13;5.53;;;;;;;;;;5075339;28;20219;-54
2022/04/14 03:23:33;;;;;;;5.57;5.07;;;;;;;;;;5075489;28;20195;-54
2022/04/14 03:26:00;;;;;;;6.23;5.40;;;;;;;;;;5075180;28;20203;-55
2022/04/14 03:28:26;;;;;;;5.67;4.97;;;;;;;;;;5075345;28;20184;-55
2022/04/14 03:30:52;;;;;;;6.13;5.50;;;;;;;;;;5075249;28;20718;-55
2022/04/14 03:33:18;;;;;;;5.97;5.43;;;;;;;;;;5075383;28;20199;-55
2022/04/14 03:35:44;;;;;;;4.97;4.47;;;;;;;;;;5075241;28;20218;-55
2022/04/14 03:38:10;;;;;;;6.10;4.87;;;;;;;;;;5075216;28;20208;-54
2022/04/14 03:40:38;;;;;;;5.30;4.50;;;;;;;;;;5075125;28;20215;-55
2022/04/14 03:43:04;;;;;;;6.87;5.20;;;;;;;;;;5075053;28;20223;-55
2022/04/14 03:45:30;;;;;;;6.93;4.70;;;;;;;;;;5075270;28;20689;-55
2022/04/14 03:47:55;;;;;;;5.63;4.80;;;;;;;;;;5074970;28;20192;-55
2022/04/14 03:50:21;;;;;;;4.93;4.53;;;;;;;;;;5074878;28;20440;-55
2022/04/14 03:52:47;;;;;;;5.30;4.80;;;;;;;;;;5074837;28;20678;-55
2022/04/14 03:55:13;;;;;;;7.03;5.23;;;;;;;;;;5074979;28;20286;-54
2022/04/14 03:57:41;;;;;;;5.30;4.80;;;;;;;;;;5074837;28;20199;-55
2022/04/14 04:00:08;;;;;;;5.23;4.73;;;;;;;;;;5074643;28;20211;-55
2022/04/14 04:02:36;;;;;;;7.20;5.57;;;;;;;;;;5074619;28;20285;-54
2022/04/14 04:05:02;;;;;;;6.00;5.50;;;;;;;;;;5074586;28;20196;-55
2022/04/14 04:07:28;;;;;;;5.50;5.00;;;;;;;;;;5074596;28;20573;-55
2022/04/14 04:09:54;;;;;;;5.50;5.00;;;;;;;;;;5074548;28;20629;-54
2022/04/14 04:12:21;;;;;;;5.77;4.93;;;;;;;;;;5074751;28;20234;-54
2022/04/14 04:14:49;;;;;;;5.67;5.13;;;;;;;;;;5074531;28;20275;-54
2022/04/14 04:17:15;;;;;;;5.20;4.60;;;;;;;;;;5074363;28;20299;-54
2022/04/14 04:19:42;;;;;;;9.33;5.83;;;;;;;;;;5074411;28;20274;-54
2022/04/14 04:22:08;;;;;;;6.20;5.30;;;;;;;;;;5074314;28;20227;-55
2022/04/14 04:24:34;;;;;;;5.57;5.03;;;;;;;;;;5074300;28;20225;-55
2022/04/14 04:27:00;;;;;;;5.80;5.00;;;;;;;;;;5073590;28;20195;-54
2022/04/14 04:29:26;;;;;;;5.70;5.00;;;;;;;;;;5073795;28;20229;-54
2022/04/14 04:31:54;;;;;;;6.83;5.27;;;;;;;;;;5074106;28;20533;-54
2022/04/14 04:34:20;;;;;;;5.93;5.30;;;;;;;;;;5074111;28;20207;-54
2022/04/14 04:36:46;;;;;;;5.00;4.50;;;;;;;;;;5074163;28;20191;-54
2022/04/14 04:39:12;;;;;;;5.07;4.63;;;;;;;;;;5074189;28;20239;-54
2022/04/14 04:41:38;;;;;;;6.97;4.70;;;;;;;;;;5073924;28;20444;-54
2022/04/14 04:44:04;;;;;;;5.73;5.13;;;;;;;;;;5073837;28;20756;-54
2022/04/14 04:46:30;;;;;;;5.00;4.60;;;;;;;;;;5073920;28;20226;-54
2022/04/14 04:48:57;;;;;;;4.97;4.57;;;;;;;;;;5073790;28;20215;-54
2022/04/14 04:51:24;;;;;;;4.83;4.40;;;;;;;;;;5073824;28;20208;-54
2022/04/14 04:53:51;;;;;;;5.93;5.27;;;;;;;;;;5073692;28;20195;-55
2022/04/14 04:56:18;;;;;;;5.60;5.10;;;;;;;;;;5073875;28;20199;-55
2022/04/14 04:58:44;;;;;;;5.60;5.00;;;;;;;;;;5073824;28;20234;-55
2022/04/14 05:01:10;;;;;;;6.33;5.30;;;;;;;;;;5073122;28;20318;-55
2022/04/14 05:03:36;;;;;;;6.70;6.07;;;;;;;;;;5073577;28;20195;-55
2022/04/14 05:06:03;;;;;;;6.53;5.93;;;;;;;;;;5073449;28;20211;-55
2022/04/14 05:08:29;;;;;;;6.10;5.50;;;;;;;;;;5073840;28;20208;-55
2022/04/14 05:10:55;;;;;;;6.53;5.80;;;;;;;;;;5073414;28;20192;-55
2022/04/14 05:13:21;;;;;;;7.30;6.00;;;;;;;;;;5073400;28;20661;-55
2022/04/14 05:15:47;;;;;;;6.53;5.83;;;;;;;;;;5073317;28;20215;-55
2022/04/14 05:18:13;;;;;;;5.90;5.33;;;;;;;;;;5073319;28;20635;-55
2022/04/14 05:20:42;;;;;;;6.57;5.63;;;;;;;;;;5072837;28;20348;-55
2022/04/14 05:23:09;;;;;;;7.93;5.53;;;;;;;;;;5072993;28;20196;-55
2022/04/14 05:25:35;;;;;;;6.07;5.53;;;;;;;;;;5072650;28;20219;-55
2022/04/14 05:28:01;;;;;;;6.60;6.00;;;;;;;;;;5072871;28;20192;-55
2022/04/14 05:30:27;;;;;;;7.40;4.93;;;;;;;;;;5072665;28;20196;-56
2022/04/14 05:32:53;;;;;;;5.50;5.00;;;;;;;;;;5072522;28;20232;-55
2022/04/14 05:35:21;;;;;;;5.67;4.97;;;;;;;;;;5072643;28;20208;-55
2022/04/14 05:37:47;;;;;;;6.67;4.53;;;;;;;;;;5072645;28;20207;-55
2022/04/14 05:40:14;;;;;;;4.93;4.53;;;;;;;;;;5072061;28;20207;-55
2022/04/14 05:42:46;;;;;;;5.10;4.57;;;;;;;;;;5072480;28;20344;-55
2022/04/14 05:45:12;;;;;;;4.47;4.07;;;;;;;;;;5072492;28;20282;-56
2022/04/14 05:47:38;;;;;;;5.57;4.50;;;;;;;;;;5072558;28;20283;-55
2022/04/14 05:50:05;;;;;;;5.00;3.70;;;;;;;;;;5072364;28;20253;-55
2022/04/14 05:52:31;;;;;;;4.67;3.97;;;;;;;;;;5072426;28;20199;-55
2022/04/14 05:55:01;;;;;;;4.90;4.40;;;;;;;;;;5072282;28;20211;-55
2022/04/14 05:57:29;;;;;;;6.00;3.60;;;;;;;;;;5072429;28;20681;-55
2022/04/14 05:59:55;;;;;;;4.13;3.83;;;;;;;;;;5072159;28;20215;-55
2022/04/14 06:02:21;;;;;;;4.07;3.53;;;;;;;;;;5072062;28;20243;-55
2022/04/14 06:04:47;;;;;;;5.13;3.97;;;;;;;;;;5072336;28;20192;-55
2022/04/14 06:07:13;;;;;;;5.83;3.73;;;;;;;;;;5072276;28;20551;-55
2022/04/14 06:09:39;;;;;;;4.37;3.60;;;;;;;;;;5072102;28;20215;-55
2022/04/14 06:12:05;;;;;;;5.03;3.33;;;;;;;;;;5072012;28;20210;-55
2022/04/14 06:14:33;;;;;;;4.77;3.67;;;;;;;;;;5072386;28;20206;-55
2022/04/14 06:16:59;;;;;;;3.83;3.40;;;;;;;;;;5072019;28;20286;-55
2022/04/14 06:19:25;;;;;;;4.50;3.67;;;;;;;;;;5072101;28;20283;-55
2022/04/14 06:21:51;;;;;;;4.70;3.57;;;;;;;;;;5071826;28;20685;-55
2022/04/14 06:24:17;;;;;;;4.40;4.00;;;;;;;;;;5072144;28;20302;-55
2022/04/14 06:26:43;;;;;;;4.07;3.67;;;;;;;;;;5071932;28;20209;-55
2022/04/14 06:29:09;;;;;;;4.23;3.67;;;;;;;;;;5071736;28;20252;-55
2022/04/14 06:31:37;;;;;;;5.50;4.10;;;;;;;;;;5071951;28;20282;-55
2022/04/14 06:34:03;;;;;;;4.63;4.23;;;;;;;;;;5071728;28;20207;-55
2022/04/14 06:36:29;;;;;;;5.20;3.73;;;;;;;;;;5071709;28;20210;-55
2022/04/14 06:38:55;;;;;;;5.20;4.03;;;;;;;;;;5071454;28;20203;-55
2022/04/14 06:41:21;;;;;;;5.60;3.83;;;;;;;;;;5071724;28;20224;-55
2022/04/14 06:43:49;;;;;;;5.73;4.33;;;;;;;;;;5071641;28;20188;-55
2022/04/14 06:46:15;;;;;;;5.23;4.10;;;;;;;;;;5071796;28;20195;-54
2022/04/14 06:48:42;;;;;;;5.27;4.30;;;;;;;;;;5072069;28;20203;-56
2022/04/14 06:51:09;;;;;;;5.57;4.60;;;;;;;;;;5072969;28;20615;-57
2022/04/14 06:53:35;;;;;;;6.13;4.90;;;;;;;;;;5075951;28;20202;-57
2022/04/14 06:56:01;;;;;;;5.03;4.50;;;;;;;;;;5075899;28;20228;-57
2022/04/14 06:58:28;;;;;;;9.43;5.53;;;;;;;;;;5075816;28;20278;-57
2022/04/14 07:00:54;;;;;;;5.33;4.83;;;;;;;;;;5075419;28;20231;-57
2022/04/14 07:03:26;;;;;;;7.67;5.13;;;;;;;;;;5075662;28;20204;-52
2022/04/14 07:05:54;;;;;;;6.27;5.10;;;;;;;;;;5075518;28;20203;-53
2022/04/14 07:08:21;;;;;;;8.77;5.57;;;;;;;;;;5075777;28;20203;-53
2022/04/14 07:10:47;;;;;;;8.30;6.60;;;;;;;;;;5075583;28;20290;-51
2022/04/14 07:13:13;;;;;;;7.07;5.97;;;;;;;;;;5075324;28;20290;-51
2022/04/14 07:15:39;;;;;;;8.93;7.07;;;;;;;;;;5075371;28;20203;-55
2022/04/14 07:18:05;;;;;;;8.17;6.87;;;;;;;;;;5075294;28;20253;-56
2022/04/14 07:20:31;;;;;;;7.77;6.97;;;;;;;;;;5075272;28;20282;-57
2022/04/14 07:22:59;;;;;;;10.97;8.23;;;;;;;;;;5075302;28;20252;-57
2022/04/14 07:25:28;;;;;;;9.47;7.67;;;;;;;;;;5075118;28;20277;-56
2022/04/14 07:27:54;;;;;;;9.37;8.03;;;;;;;;;;5075294;28;20199;-58
2022/04/14 07:30:21;;;;;;;11.93;8.43;;;;;;;;;;5075319;28;20206;-57
2022/04/14 07:32:47;;;;;;;9.87;8.27;;;;;;;;;;5074887;28;20272;-56
2022/04/14 07:35:13;;;;;;;10.27;8.53;;;;;;;;;;5069971;28;20558;-56
2022/04/14 07:37:39;;;;;;;10.37;8.70;;;;;;;;;;5074579;28;20203;-56
2022/04/14 07:40:07;;;;;;;11.23;8.83;;;;;;;;;;5074268;28;20479;-56
2022/04/14 07:42:34;;;;;;;13.17;9.47;;;;;;;;;;5074636;28;20235;-55
2022/04/14 07:45:00;;;;;;;15.60;11.10;;;;;;;;;;5074571;28;20199;-55
2022/04/14 07:47:26;;;;;;;12.67;10.77;;;;;;;;;;5074392;28;20204;-55
2022/04/14 07:49:52;;;;;;;14.83;10.90;;;;;;;;;;5074697;28;20194;-56
2022/04/14 07:52:18;;;;;;;11.80;10.60;;;;;;;;;;5074606;28;20557;-56
2022/04/14 07:54:44;;;;;;;14.60;11.33;;;;;;;;;;5074853;28;20206;-56
2022/04/14 07:57:12;;;;;;;13.53;10.40;;;;;;;;;;5074562;28;20204;-55
2022/04/14 07:59:38;;;;;;;13.43;10.93;;;;;;;;;;5074659;28;20278;-55
2022/04/14 08:02:04;;;;;;;14.20;10.93;;;;;;;;;;5073711;28;20284;-55
2022/04/14 08:04:31;;;;;;;12.70;11.00;;;;;;;;;;5074530;28;20202;-56
2022/04/14 08:06:57;;;;;;;14.17;10.93;;;;;;;;;;5074674;28;20249;-55
2022/04/14 08:09:23;;;;;;;13.37;11.27;;;;;;;;;;5074460;28;20402;-56
2022/04/14 08:11:49;;;;;;;14.63;11.00;;;;;;;;;;5072504;28;20642;-56
2022/04/14 08:14:16;;;;;;;13.40;11.30;;;;;;;;;;5074307;28;20199;-55
2022/04/14 08:16:42;;;;;;;15.40;12.13;;;;;;;;;;5073722;28;20294;-54
2022/04/14 08:19:08;;;;;;;13.43;11.30;;;;;;;;;;5074135;28;20191;-55
2022/04/14 08:21:34;;;;;;;15.00;11.30;;;;;;;;;;5074456;28;20600;-55
2022/04/14 08:24:01;;;;;;;13.60;12.17;;;;;;;;;;5074170;28;20224;-56
2022/04/14 08:26:27;;;;;;;13.27;11.87;;;;;;;;;;5074112;28;20195;-55
2022/04/14 08:28:55;;;;;;;14.87;12.00;;;;;;;;;;5073806;28;20207;-55
2022/04/14 08:31:22;;;;;;;17.43;13.43;;;;;;;;;;5070843;28;20203;-55
2022/04/14 08:33:49;;;;;;;15.77;14.07;;;;;;;;;;5073711;28;20200;-54
2022/04/14 08:36:15;;;;;;;15.23;13.60;;;;;;;;;;5073921;28;20195;-54
2022/04/14 08:38:42;;;;;;;18.43;13.37;;;;;;;;;;5073889;28;20298;-54
2022/04/14 08:41:08;;;;;;;15.83;13.37;;;;;;;;;;5073445;28;20251;-54
2022/04/14 08:43:35;;;;;;;16.13;14.40;;;;;;;;;;5073579;28;20290;-54
2022/04/14 08:46:03;;;;;;;21.20;16.97;;;;;;;;;;5073513;28;20199;-54
2022/04/14 08:48:30;;;;;;;20.47;16.97;;;;;;;;;;5073701;28;20662;-55
2022/04/14 08:50:57;;;;;;;19.20;17.20;;;;;;;;;;5073341;28;20606;-54
2022/04/14 08:53:24;;;;;;;18.83;16.67;;;;;;;;;;5073469;28;20199;-55
2022/04/14 08:55:50;;;;;;;20.13;16.77;;;;;;;;;;5073239;28;20581;-55
2022/04/14 08:58:26;;;;;;;19.23;16.67;;;;;;;;;;5073350;28;20207;-55
2022/04/14 09:00:54;;;;;;;25.13;18.10;;;;;;;;;;5073243;28;20234;-54
2022/04/14 09:03:20;;;;;;;21.00;16.87;;;;;;;;;;5071758;28;20723;-56
2022/04/14 09:05:48;;;;;;;22.17;17.20;;;;;;;;;;5073493;28;20202;-56
2022/04/14 09:08:14;;;;;;;24.40;18.53;;;;;;;;;;5073421;28;20235;-54
2022/04/14 09:10:40;;;;;;;23.60;18.40;;;;;;;;;;5073265;28;20234;-54
2022/04/14 09:13:06;;;;;;;22.33;18.93;;;;;;;;;;5072646;28;20217;-54
2022/04/14 09:15:32;;;;;;;23.27;17.90;;;;;;;;;;5073152;28;20741;-54
2022/04/14 09:17:58;;;;;;;19.20;16.87;;;;;;;;;;5073278;28;20200;-55
2022/04/14 09:20:28;;;;;;;23.33;18.27;;;;;;;;;;5072985;28;20221;-53
2022/04/14 09:25:52;;;;;;;21.23;17.80;;;;;;;;;;5088766;28;20556;-53
2022/04/14 09:28:19;;;;;;;22.20;18.83;;;;;;;;;;5089072;28;20195;-52
2022/04/14 09:30:57;;;;;;;20.97;17.67;;;;;;;;;;5089229;28;20198;-52
2022/04/14 09:33:23;;;;;;;21.80;18.03;;;;;;;;;;5089171;28;20252;-54
2022/04/14 09:36:03;;;;;;;21.10;17.20;;;;;;;;;;5088937;28;20615;-52
2022/04/14 09:38:29;;;;;;;19.47;16.90;;;;;;;;;;5089198;28;20255;-53
2022/04/14 09:40:56;;;;;;;26.90;18.60;;;;;;;;;;5088945;28;20195;-51
2022/04/14 09:43:22;;;;;;;20.27;17.67;;;;;;;;;;5088673;28;20202;-55
2022/04/14 09:45:50;;;;;;;22.77;17.93;;;;;;;;;;5088735;28;20202;-53
2022/04/14 09:48:18;;;;;;;21.20;18.10;;;;;;;;;;5088848;28;20553;-53
2022/04/14 09:50:48;;;;;;;20.77;16.77;;;;;;;;;;5088779;28;20233;-53
2022/04/14 09:53:15;;;;;;;20.93;17.87;;;;;;;;;;5088808;28;20196;-53
2022/04/14 09:55:42;;;;;;;21.50;16.67;;;;;;;;;;5088588;28;20193;-53
2022/04/14 09:58:10;;;;;;;18.43;16.43;;;;;;;;;;5088538;28;20209;-54
2022/04/14 10:00:38;;;;;;;19.57;16.47;;;;;;;;;;5088536;28;20273;-53
2022/04/14 10:03:15;;;;;;;18.97;16.17;;;;;;;;;;5088341;28;20202;-52
2022/04/14 10:05:41;;;;;;;22.97;17.63;;;;;;;;;;5088354;28;20255;-52
2022/04/14 10:08:08;;;;;;;19.27;17.07;;;;;;;;;;5088377;28;20674;-53
2022/04/14 10:10:34;;;;;;;20.37;17.67;;;;;;;;;;5088375;28;20263;-53
2022/04/14 10:13:05;;;;;;;19.80;16.97;;;;;;;;;;5088379;28;20200;-54
2022/04/14 10:15:33;;;;;;;20.60;17.17;;;;;;;;;;5088250;28;20199;-53
2022/04/14 10:18:02;;;;;;;21.80;17.40;;;;;;;;;;5088228;28;20215;-53
2022/04/14 10:20:28;;;;;;;19.33;17.23;;;;;;;;;;5088347;28;20246;-54
2022/04/14 10:22:54;;;;;;;19.43;16.33;;;;;;;;;;5088115;28;20212;-53
2022/04/14 10:25:20;;;;;;;18.13;15.57;;;;;;;;;;5087783;28;20333;-54
2022/04/14 10:27:47;;;;;;;22.53;17.23;;;;;;;;;;5088100;28;20297;-53
2022/04/14 10:30:16;;;;;;;20.10;17.10;;;;;;;;;;5088008;28;20225;-53
2022/04/14 10:32:44;;;;;;;19.90;16.73;;;;;;;;;;5088130;28;20199;-55
2022/04/14 10:35:10;;;;;;;20.77;16.00;;;;;;;;;;5085423;28;20199;-52
2022/04/14 10:37:38;;;;;;;18.80;16.80;;;;;;;;;;5074230;28;20199;-54
2022/04/14 10:40:04;;;;;;;18.47;16.47;;;;;;;;;;5074036;28;20199;-54
2022/04/14 10:42:31;;;;;;;20.03;17.30;;;;;;;;;;5074284;28;20203;-53
2022/04/14 10:44:57;;;;;;;20.47;17.27;;;;;;;;;;5074186;28;20227;-53
2022/04/14 10:47:33;;;;;;;18.07;16.20;;;;;;;;;;5074020;28;20414;-53
2022/04/14 10:50:00;;;;;;;18.53;15.17;;;;;;;;;;5074016;28;20676;-53
2022/04/14 10:52:27;;;;;;;17.77;15.37;;;;;;;;;;5074019;28;20661;-56
2022/04/14 10:54:57;;;;;;;17.53;14.47;;;;;;;;;;5074250;28;20191;-53
2022/04/14 10:57:35;;;;;;;16.80;14.70;;;;;;;;;;5074116;28;20207;-53
2022/04/14 11:00:01;;;;;;;17.37;14.53;;;;;;;;;;5073921;28;20683;-53
2022/04/14 11:02:55;;;;;;;18.57;13.70;;;;;;;;;;5073979;28;20204;-54
2022/04/14 11:05:35;;;;;;;16.60;14.83;;;;;;;;;;5073638;28;20788;-53
2022/04/14 11:08:22;;;;;;;15.13;13.57;;;;;;;;;;5073644;28;20645;-52
2022/04/14 11:11:07;;;;;;;16.10;14.40;;;;;;;;;;5073784;28;20203;-53
2022/04/14 11:13:48;;;;;;;17.03;13.53;;;;;;;;;;5073766;28;20195;-53
2022/04/14 11:16:29;;;;;;;17.87;14.40;;;;;;;;;;5073436;28;20203;-53
2022/04/14 11:19:12;;;;;;;18.73;14.90;;;;;;;;;;5073229;28;20198;-53
2022/04/14 11:21:59;;;;;;;16.87;14.47;;;;;;;;;;5073308;28;20340;-53
2022/04/14 11:24:34;;;;;;;15.67;12.93;;;;;;;;;;5073011;28;20238;-54
2022/04/14 11:27:09;;;;;;;16.57;13.87;;;;;;;;;;5073731;28;20282;-54
2022/04/14 11:29:35;;;;;;;15.80;14.07;;;;;;;;;;5073663;28;20203;-56
2022/04/14 11:32:01;;;;;;;14.63;13.10;;;;;;;;;;5073598;28;20199;-55
2022/04/14 11:34:31;;;;;;;15.27;12.97;;;;;;;;;;5073284;28;20205;-55
2022/04/14 11:36:58;;;;;;;13.87;12.00;;;;;;;;;;5073657;28;20207;-56
2022/04/14 11:39:25;;;;;;;14.07;12.33;;;;;;;;;;5073614;28;20226;-54
2022/04/14 11:41:57;;;;;;;13.63;11.23;;;;;;;;;;5073464;28;20245;-56
2022/04/14 11:44:26;;;;;;;12.90;10.53;;;;;;;;;;5073464;28;20231;-55
2022/04/14 11:46:54;;;;;;;13.50;9.63;;;;;;;;;;5072593;28;20208;-55
2022/04/14 11:49:21;;;;;;;11.50;10.30;;;;;;;;;;5072639;28;20197;-55
2022/04/14 11:51:48;;;;;;;13.93;10.43;;;;;;;;;;5073289;28;20195;-56
2022/04/14 11:54:19;;;;;;;14.03;9.93;;;;;;;;;;5073263;28;20200;-54
2022/04/14 11:56:49;;;;;;;13.20;10.97;;;;;;;;;;5073309;28;20287;-54
2022/04/14 11:59:19;;;;;;;14.87;11.50;;;;;;;;;;5073138;28;20196;-55
2022/04/14 12:01:49;;;;;;;13.03;10.70;;;;;;;;;;5073169;28;20205;-55
2022/04/14 12:04:15;;;;;;;15.10;11.13;;;;;;;;;;5072815;28;20223;-55
2022/04/14 12:06:50;;;;;;;13.60;11.70;;;;;;;;;;5072987;28;20192;-54
2022/04/14 12:09:18;;;;;;;13.43;12.00;;;;;;;;;;5073047;28;20258;-54
2022/04/14 12:11:44;;;;;;;13.00;11.60;;;;;;;;;;5073024;28;20719;-55
2022/04/14 12:14:10;;;;;;;12.80;11.23;;;;;;;;;;5072830;28;20192;-55
2022/04/14 12:16:37;;;;;;;14.43;12.47;;;;;;;;;;5072722;28;20206;-55
2022/04/14 12:19:05;;;;;;;13.83;12.30;;;;;;;;;;5072634;28;20199;-55
2022/04/14 12:21:31;;;;;;;16.17;12.17;;;;;;;;;;5072901;28;20203;-55
2022/04/14 12:23:59;;;;;;;13.47;12.00;;;;;;;;;;5072234;28;20231;-55
2022/04/14 12:26:28;;;;;;;14.23;12.50;;;;;;;;;;5072595;28;20546;-55
2022/04/14 12:28:54;;;;;;;14.37;11.77;;;;;;;;;;5072483;28;20567;-55
2022/04/14 12:31:20;;;;;;;14.60;12.40;;;;;;;;;;5072450;28;20211;-55
2022/04/14 12:33:58;;;;;;;15.00;12.57;;;;;;;;;;5072403;28;20214;-56
2022/04/14 12:36:33;;;;;;;13.27;11.50;;;;;;;;;;5072465;28;20247;-55
2022/04/14 12:38:59;;;;;;;15.23;12.40;;;;;;;;;;5072601;28;20193;-55
2022/04/14 12:41:32;;;;;;;13.77;11.50;;;;;;;;;;5072612;28;20283;-55
2022/04/14 12:43:58;;;;;;;16.37;13.03;;;;;;;;;;5072344;28;20239;-55
2022/04/14 12:46:25;;;;;;;15.70;13.00;;;;;;;;;;5072334;28;20184;-54
2022/04/14 12:49:03;;;;;;;16.17;12.90;;;;;;;;;;5070532;28;20201;-54
2022/04/14 12:51:30;;;;;;;17.07;13.17;;;;;;;;;;5072374;28;20209;-55
2022/04/14 12:53:56;;;;;;;13.47;12.07;;;;;;;;;;5072225;28;20653;-54
2022/04/14 12:56:22;;;;;;;13.93;12.20;;;;;;;;;;5070411;28;20222;-54
2022/04/14 12:59:03;;;;;;;14.70;11.97;;;;;;;;;;5071923;28;20703;-54
2022/04/14 13:01:44;;;;;;;13.67;12.13;;;;;;;;;;5072028;28;20197;-55
2022/04/14 13:04:11;;;;;;;13.37;11.97;;;;;;;;;;5071837;28;20225;-55
2022/04/14 13:06:37;;;;;;;13.77;11.60;;;;;;;;;;5071952;28;20203;-55
2022/04/14 13:09:13;;;;;;;13.07;11.67;;;;;;;;;;5052603;28;20199;-55
2022/04/14 13:11:40;;;;;;;13.07;11.70;;;;;;;;;;5057123;28;20197;-54
2022/04/14 13:14:16;;;;;;;14.13;12.13;;;;;;;;;;5054334;28;20201;-55
2022/04/14 13:16:43;;;;;;;13.83;12.13;;;;;;;;;;5051954;28;20289;-55
2022/04/14 13:19:13;;;;;;;13.57;11.87;;;;;;;;;;5051806;28;20252;-55
2022/04/14 13:21:40;;;;;;;12.93;11.13;;;;;;;;;;5051982;28;20209;-59
2022/04/14 13:24:06;;;;;;;12.97;10.73;;;;;;;;;;5051515;28;20269;-56
2022/04/14 13:26:32;;;;;;;11.77;9.60;;;;;;;;;;5052046;28;20203;-55
2022/04/14 13:28:59;;;;;;;10.50;9.33;;;;;;;;;;5051861;28;20210;-55
2022/04/14 13:31:25;;;;;;;11.30;9.30;;;;;;;;;;5051952;28;20205;-56
2022/04/14 13:33:51;;;;;;;11.77;9.03;;;;;;;;;;5051639;28;20708;-55
2022/04/14 13:36:18;;;;;;;10.73;9.60;;;;;;;;;;5051695;28;20248;-54
2022/04/14 13:38:44;;;;;;;13.37;9.70;;;;;;;;;;5051822;28;20207;-56
2022/04/14 13:41:11;;;;;;;11.00;9.90;;;;;;;;;;5056787;28;20213;-56
2022/04/14 13:43:37;;;;;;;10.37;9.27;;;;;;;;;;5051149;28;20207;-55
2022/04/14 13:46:03;;;;;;;10.20;9.17;;;;;;;;;;5051190;28;20232;-55
2022/04/14 13:48:30;;;;;;;11.60;9.80;;;;;;;;;;5051742;28;20293;-55
2022/04/14 13:50:56;;;;;;;9.37;8.47;;;;;;;;;;5051365;28;20226;-55
2022/04/14 13:53:23;;;;;;;8.13;7.33;;;;;;;;;;5051578;28;20231;-55
2022/04/14 13:55:50;;;;;;;8.73;7.93;;;;;;;;;;5051355;28;20205;-54
2022/04/14 13:58:16;;;;;;;8.17;7.47;;;;;;;;;;5051284;28;20202;-55
2022/04/14 14:00:42;;;;;;;7.97;7.13;;;;;;;;;;5051477;28;20281;-55
2022/04/14 14:03:11;;;;;;;7.80;7.10;;;;;;;;;;5051455;28;20206;-55
2022/04/14 14:05:37;;;;;;;8.50;7.70;;;;;;;;;;5051092;28;20250;-55
2022/04/14 14:08:03;;;;;;;9.27;7.13;;;;;;;;;;5051451;28;20190;-55
2022/04/14 14:10:30;;;;;;;8.53;7.47;;;;;;;;;;5051765;28;20210;-54
2022/04/14 14:12:56;;;;;;;9.57;7.70;;;;;;;;;;5055206;28;20578;-54
2022/04/14 14:15:22;;;;;;;10.13;8.20;;;;;;;;;;5055052;28;20278;-55
2022/04/14 14:17:48;;;;;;;8.43;7.70;;;;;;;;;;5055074;28;20672;-55
2022/04/14 14:20:14;;;;;;;8.50;7.60;;;;;;;;;;5055145;28;20293;-55
2022/04/14 14:22:41;;;;;;;10.00;7.80;;;;;;;;;;5055023;28;20199;-55
2022/04/14 14:25:07;;;;;;;8.47;7.60;;;;;;;;;;5054704;28;20240;-54
2022/04/14 14:27:35;;;;;;;8.73;7.93;;;;;;;;;;5055054;28;20191;-55
2022/04/14 14:30:01;;;;;;;8.83;7.90;;;;;;;;;;5055007;28;20724;-55
2022/04/14 14:32:27;;;;;;;8.67;7.50;;;;;;;;;;5055026;28;20200;-55
2022/04/14 14:34:53;;;;;;;8.93;8.03;;;;;;;;;;5054715;28;20196;-55